KLGC

Lagrange-Callaway Airport

Lagrange, Georgia, USA
METAR KLGC 230855Z AUTO 00000KT 10SM OVC007 22/22 A3004 RMK AO2 LTG DSNT SW T02200216
Observed Flight Rules
May-23 @ 08:55 UTC (11 minutes ago) Instrument Flight Rules
Visibility Clouds
10 miles
  • Overcast at 700' AGL
Temperatures Readings
Current 22°C / 72°F
Dewpoint 22°C / 72°F
Humidity 100%
Altimeter 30.04" Hg
Pressure 1017 hPa
Elevation 211
METAR KLGC 230855Z AUTO 00000KT 10SM OVC007 22/22 A3004 RMK AO2 LTG DSNT SW T02200216
Observed Flight Rules
May-23 @ 08:55 UTC
(11 minutes ago)
IFR
Clouds
  • Overcast at 700' AGL
Temperature Dewpoint
22°C / 72°F 22°C / 72°F
Humidity Altimeter Pressure
100% 30.04" Hg 1017 hPa